K4MR

Melrose Gunnery Range Airport

New Mexico, USA
METAR K4MR 230958Z AUTO 28005KT 10SM CLR 12/11 A3020 RMK AO2 SLP188 T01200107 $
Observed Flight Rules
Oct-23 @ 09:58 UTC (15 minutes ago) Visual Flight Rules
Wind Visibility Clouds
280° at 5 knots 10 miles
  • Clear skies
Temperatures Readings
Current 12°C / 54°F
Dewpoint 11°C / 52°F
Humidity 94%
Altimeter 30.2" Hg
Pressure 1018.8 hPa
Elevation 1326
METAR K4MR 230958Z AUTO 28005KT 10SM CLR 12/11 A3020 RMK AO2 SLP188 T01200107 $
Observed Flight Rules
Oct-23 @ 09:58 UTC
(15 minutes ago)
VFR
Wind Visibility
280° at 5 knots 10 miles
Clouds
  • Clear skies
Temperature Dewpoint
12°C / 54°F 11°C / 52°F
Humidity Altimeter Pressure
94% 30.2" Hg 1018.8 hPa